sensor_id;sensor_type;location;lat;lon;timestamp;P1;durP1;ratioP1;P2;durP2;ratioP2
12312;SDS011;6220;53.580;9.758;2023-12-07T00:00:21;72.23;;;42.03;;
12312;SDS011;6220;53.580;9.758;2023-12-07T00:02:47;80.20;;;43.17;;
12312;SDS011;6220;53.580;9.758;2023-12-07T00:05:12;75.77;;;42.13;;
12312;SDS011;6220;53.580;9.758;2023-12-07T00:07:37;72.77;;;41.77;;
12312;SDS011;6220;53.580;9.758;2023-12-07T00:10:03;76.53;;;42.40;;
12312;SDS011;6220;53.580;9.758;2023-12-07T00:12:30;67.23;;;39.93;;
12312;SDS011;6220;53.580;9.758;2023-12-07T00:14:55;75.10;;;43.03;;
12312;SDS011;6220;53.580;9.758;2023-12-07T00:17:21;71.27;;;40.83;;
12312;SDS011;6220;53.580;9.758;2023-12-07T00:19:46;74.63;;;42.07;;
12312;SDS011;6220;53.580;9.758;2023-12-07T00:22:13;74.90;;;43.13;;
12312;SDS011;6220;53.580;9.758;2023-12-07T00:24:38;69.43;;;39.67;;
12312;SDS011;6220;53.580;9.758;2023-12-07T00:27:05;69.90;;;40.90;;
12312;SDS011;6220;53.580;9.758;2023-12-07T00:29:30;66.60;;;39.17;;
12312;SDS011;6220;53.580;9.758;2023-12-07T00:31:56;69.53;;;40.93;;
12312;SDS011;6220;53.580;9.758;2023-12-07T00:34:23;68.83;;;39.57;;
12312;SDS011;6220;53.580;9.758;2023-12-07T00:36:49;69.57;;;40.77;;
12312;SDS011;6220;53.580;9.758;2023-12-07T00:39:14;65.67;;;40.10;;
12312;SDS011;6220;53.580;9.758;2023-12-07T00:41:39;65.10;;;38.20;;
12312;SDS011;6220;53.580;9.758;2023-12-07T00:44:04;70.50;;;38.97;;
12312;SDS011;6220;53.580;9.758;2023-12-07T00:46:30;65.87;;;37.57;;
12312;SDS011;6220;53.580;9.758;2023-12-07T00:48:57;64.67;;;38.07;;
12312;SDS011;6220;53.580;9.758;2023-12-07T00:51:23;68.13;;;39.33;;
12312;SDS011;6220;53.580;9.758;2023-12-07T00:53:50;67.33;;;38.77;;
12312;SDS011;6220;53.580;9.758;2023-12-07T00:56:15;71.67;;;39.73;;
12312;SDS011;6220;53.580;9.758;2023-12-07T00:58:40;66.87;;;38.37;;
12312;SDS011;6220;53.580;9.758;2023-12-07T01:01:07;68.40;;;38.97;;
12312;SDS011;6220;53.580;9.758;2023-12-07T01:03:33;63.93;;;36.37;;
12312;SDS011;6220;53.580;9.758;2023-12-07T01:05:58;68.00;;;38.60;;
12312;SDS011;6220;53.580;9.758;2023-12-07T01:08:23;68.07;;;39.73;;
12312;SDS011;6220;53.580;9.758;2023-12-07T01:10:49;68.07;;;39.47;;
12312;SDS011;6220;53.580;9.758;2023-12-07T01:13:14;64.10;;;37.03;;
12312;SDS011;6220;53.580;9.758;2023-12-07T01:15:42;65.17;;;37.60;;
12312;SDS011;6220;53.580;9.758;2023-12-07T01:18:07;59.30;;;36.60;;
12312;SDS011;6220;53.580;9.758;2023-12-07T01:20:32;62.47;;;36.20;;
12312;SDS011;6220;53.580;9.758;2023-12-07T01:22:58;61.33;;;36.57;;
12312;SDS011;6220;53.580;9.758;2023-12-07T01:25:24;58.63;;;34.70;;
12312;SDS011;6220;53.580;9.758;2023-12-07T01:27:52;60.43;;;36.33;;
12312;SDS011;6220;53.580;9.758;2023-12-07T01:30:18;59.50;;;36.77;;
12312;SDS011;6220;53.580;9.758;2023-12-07T01:32:45;58.83;;;36.40;;
12312;SDS011;6220;53.580;9.758;2023-12-07T01:35:10;58.00;;;36.10;;
12312;SDS011;6220;53.580;9.758;2023-12-07T01:37:36;59.27;;;35.40;;
12312;SDS011;6220;53.580;9.758;2023-12-07T01:40:02;57.93;;;36.07;;
12312;SDS011;6220;53.580;9.758;2023-12-07T01:42:32;59.80;;;36.97;;
12312;SDS011;6220;53.580;9.758;2023-12-07T01:44:57;62.13;;;38.33;;
12312;SDS011;6220;53.580;9.758;2023-12-07T01:47:22;64.63;;;37.03;;
12312;SDS011;6220;53.580;9.758;2023-12-07T01:49:48;57.20;;;35.30;;
12312;SDS011;6220;53.580;9.758;2023-12-07T01:52:14;56.43;;;35.30;;
12312;SDS011;6220;53.580;9.758;2023-12-07T01:54:41;59.13;;;34.63;;
12312;SDS011;6220;53.580;9.758;2023-12-07T01:57:07;57.10;;;34.17;;
12312;SDS011;6220;53.580;9.758;2023-12-07T01:59:33;57.37;;;34.30;;
12312;SDS011;6220;53.580;9.758;2023-12-07T02:01:58;53.73;;;32.43;;
12312;SDS011;6220;53.580;9.758;2023-12-07T02:04:24;58.07;;;33.90;;
12312;SDS011;6220;53.580;9.758;2023-12-07T02:06:51;56.90;;;35.37;;
12312;SDS011;6220;53.580;9.758;2023-12-07T02:09:18;55.83;;;34.30;;
12312;SDS011;6220;53.580;9.758;2023-12-07T02:11:43;52.77;;;33.83;;
12312;SDS011;6220;53.580;9.758;2023-12-07T02:14:11;53.37;;;33.73;;
12312;SDS011;6220;53.580;9.758;2023-12-07T02:22:05;50.40;;;32.40;;
12312;SDS011;6220;53.580;9.758;2023-12-07T02:24:35;53.33;;;33.80;;
12312;SDS011;6220;53.580;9.758;2023-12-07T02:27:03;49.77;;;33.47;;
12312;SDS011;6220;53.580;9.758;2023-12-07T02:29:29;51.53;;;33.10;;
12312;SDS011;6220;53.580;9.758;2023-12-07T02:31:55;49.10;;;31.83;;
12312;SDS011;6220;53.580;9.758;2023-12-07T02:34:20;47.53;;;31.73;;
12312;SDS011;6220;53.580;9.758;2023-12-07T02:36:47;49.87;;;33.23;;
12312;SDS011;6220;53.580;9.758;2023-12-07T02:39:13;49.37;;;31.80;;
12312;SDS011;6220;53.580;9.758;2023-12-07T02:41:39;45.40;;;30.90;;
12312;SDS011;6220;53.580;9.758;2023-12-07T02:44:05;49.07;;;31.70;;
12312;SDS011;6220;53.580;9.758;2023-12-07T02:46:32;45.03;;;30.53;;
12312;SDS011;6220;53.580;9.758;2023-12-07T02:48:58;48.93;;;31.20;;
12312;SDS011;6220;53.580;9.758;2023-12-07T02:51:24;47.37;;;30.47;;
12312;SDS011;6220;53.580;9.758;2023-12-07T02:53:49;46.93;;;30.40;;
12312;SDS011;6220;53.580;9.758;2023-12-07T02:56:15;43.80;;;29.50;;
12312;SDS011;6220;53.580;9.758;2023-12-07T02:58:40;45.77;;;31.10;;
12312;SDS011;6220;53.580;9.758;2023-12-07T03:01:05;49.37;;;32.10;;
12312;SDS011;6220;53.580;9.758;2023-12-07T03:03:31;46.27;;;31.07;;
12312;SDS011;6220;53.580;9.758;2023-12-07T03:05:56;50.00;;;31.00;;
12312;SDS011;6220;53.580;9.758;2023-12-07T03:08:22;46.50;;;30.43;;
12312;SDS011;6220;53.580;9.758;2023-12-07T03:10:47;43.03;;;28.73;;
12312;SDS011;6220;53.580;9.758;2023-12-07T03:13:12;46.63;;;30.13;;
12312;SDS011;6220;53.580;9.758;2023-12-07T03:15:38;42.50;;;29.13;;
12312;SDS011;6220;53.580;9.758;2023-12-07T03:18:04;40.43;;;27.63;;
12312;SDS011;6220;53.580;9.758;2023-12-07T03:20:30;41.93;;;28.60;;
12312;SDS011;6220;53.580;9.758;2023-12-07T03:22:57;41.13;;;27.60;;
12312;SDS011;6220;53.580;9.758;2023-12-07T03:25:22;39.77;;;27.73;;
12312;SDS011;6220;53.580;9.758;2023-12-07T03:27:47;41.67;;;27.97;;
12312;SDS011;6220;53.580;9.758;2023-12-07T03:30:13;40.40;;;28.47;;
12312;SDS011;6220;53.580;9.758;2023-12-07T03:32:39;40.83;;;29.10;;
12312;SDS011;6220;53.580;9.758;2023-12-07T03:35:06;39.13;;;26.73;;
12312;SDS011;6220;53.580;9.758;2023-12-07T03:37:31;39.73;;;26.37;;
12312;SDS011;6220;53.580;9.758;2023-12-07T03:39:57;38.47;;;27.07;;
12312;SDS011;6220;53.580;9.758;2023-12-07T03:42:22;38.87;;;27.33;;
12312;SDS011;6220;53.580;9.758;2023-12-07T03:44:47;39.03;;;27.63;;
12312;SDS011;6220;53.580;9.758;2023-12-07T03:47:13;37.33;;;26.73;;
12312;SDS011;6220;53.580;9.758;2023-12-07T03:49:38;40.10;;;27.70;;
12312;SDS011;6220;53.580;9.758;2023-12-07T03:52:04;38.73;;;26.70;;
12312;SDS011;6220;53.580;9.758;2023-12-07T03:54:29;39.20;;;26.77;;
12312;SDS011;6220;53.580;9.758;2023-12-07T03:56:55;38.07;;;26.63;;
12312;SDS011;6220;53.580;9.758;2023-12-07T03:59:21;39.07;;;26.67;;
12312;SDS011;6220;53.580;9.758;2023-12-07T04:01:47;36.70;;;25.93;;
12312;SDS011;6220;53.580;9.758;2023-12-07T04:04:13;40.90;;;27.83;;
12312;SDS011;6220;53.580;9.758;2023-12-07T04:06:38;35.30;;;26.30;;
12312;SDS011;6220;53.580;9.758;2023-12-07T04:09:04;38.37;;;27.93;;
12312;SDS011;6220;53.580;9.758;2023-12-07T04:11:30;36.53;;;26.67;;
12312;SDS011;6220;53.580;9.758;2023-12-07T04:13:58;36.10;;;26.67;;
12312;SDS011;6220;53.580;9.758;2023-12-07T04:16:25;35.80;;;25.43;;
12312;SDS011;6220;53.580;9.758;2023-12-07T04:18:50;36.57;;;26.17;;
12312;SDS011;6220;53.580;9.758;2023-12-07T04:21:16;39.07;;;27.53;;
12312;SDS011;6220;53.580;9.758;2023-12-07T04:23:41;38.10;;;26.17;;
12312;SDS011;6220;53.580;9.758;2023-12-07T04:26:07;39.23;;;27.07;;
12312;SDS011;6220;53.580;9.758;2023-12-07T04:28:32;36.50;;;26.67;;
12312;SDS011;6220;53.580;9.758;2023-12-07T04:30:58;35.23;;;25.17;;
12312;SDS011;6220;53.580;9.758;2023-12-07T04:33:23;36.37;;;26.70;;
12312;SDS011;6220;53.580;9.758;2023-12-07T04:35:48;41.13;;;27.23;;
12312;SDS011;6220;53.580;9.758;2023-12-07T04:38:16;36.60;;;26.60;;
12312;SDS011;6220;53.580;9.758;2023-12-07T04:40:43;34.80;;;25.20;;
12312;SDS011;6220;53.580;9.758;2023-12-07T04:43:08;39.23;;;27.80;;
12312;SDS011;6220;53.580;9.758;2023-12-07T04:45:34;36.17;;;25.47;;
12312;SDS011;6220;53.580;9.758;2023-12-07T04:47:59;38.00;;;26.90;;
12312;SDS011;6220;53.580;9.758;2023-12-07T04:50:25;35.73;;;25.80;;
12312;SDS011;6220;53.580;9.758;2023-12-07T04:52:51;36.50;;;26.13;;
12312;SDS011;6220;53.580;9.758;2023-12-07T04:55:16;35.17;;;26.17;;
12312;SDS011;6220;53.580;9.758;2023-12-07T04:57:42;33.43;;;24.93;;
12312;SDS011;6220;53.580;9.758;2023-12-07T05:00:08;37.67;;;26.70;;
12312;SDS011;6220;53.580;9.758;2023-12-07T05:02:37;34.50;;;25.60;;
12312;SDS011;6220;53.580;9.758;2023-12-07T05:05:03;39.07;;;27.33;;
12312;SDS011;6220;53.580;9.758;2023-12-07T05:07:28;37.30;;;27.27;;
12312;SDS011;6220;53.580;9.758;2023-12-07T05:09:53;35.67;;;26.10;;
12312;SDS011;6220;53.580;9.758;2023-12-07T05:12:19;34.57;;;25.63;;
12312;SDS011;6220;53.580;9.758;2023-12-07T05:14:44;36.70;;;26.77;;
12312;SDS011;6220;53.580;9.758;2023-12-07T05:17:11;37.37;;;26.73;;
12312;SDS011;6220;53.580;9.758;2023-12-07T05:19:37;41.77;;;27.83;;
12312;SDS011;6220;53.580;9.758;2023-12-07T05:22:02;36.80;;;27.50;;
12312;SDS011;6220;53.580;9.758;2023-12-07T05:24:28;38.63;;;27.23;;
12312;SDS011;6220;53.580;9.758;2023-12-07T05:26:55;36.50;;;26.20;;
12312;SDS011;6220;53.580;9.758;2023-12-07T05:29:22;36.30;;;27.77;;
12312;SDS011;6220;53.580;9.758;2023-12-07T05:31:49;36.87;;;26.47;;
12312;SDS011;6220;53.580;9.758;2023-12-07T05:34:15;36.13;;;27.33;;
12312;SDS011;6220;53.580;9.758;2023-12-07T05:36:42;39.07;;;27.93;;
12312;SDS011;6220;53.580;9.758;2023-12-07T05:39:07;35.37;;;27.30;;
12312;SDS011;6220;53.580;9.758;2023-12-07T05:41:33;34.03;;;25.23;;
12312;SDS011;6220;53.580;9.758;2023-12-07T05:43:58;36.40;;;26.70;;
12312;SDS011;6220;53.580;9.758;2023-12-07T05:46:24;36.50;;;26.67;;
12312;SDS011;6220;53.580;9.758;2023-12-07T05:48:50;33.67;;;26.40;;
12312;SDS011;6220;53.580;9.758;2023-12-07T05:51:17;38.70;;;26.73;;
12312;SDS011;6220;53.580;9.758;2023-12-07T05:53:43;35.80;;;26.27;;
12312;SDS011;6220;53.580;9.758;2023-12-07T05:56:09;34.63;;;25.77;;
12312;SDS011;6220;53.580;9.758;2023-12-07T05:58:35;32.43;;;26.70;;
12312;SDS011;6220;53.580;9.758;2023-12-07T06:01:00;32.63;;;25.47;;
12312;SDS011;6220;53.580;9.758;2023-12-07T06:03:27;35.60;;;27.17;;
12312;SDS011;6220;53.580;9.758;2023-12-07T06:05:52;35.57;;;26.07;;
12312;SDS011;6220;53.580;9.758;2023-12-07T06:08:18;32.53;;;25.40;;
12312;SDS011;6220;53.580;9.758;2023-12-07T06:10:43;33.87;;;26.73;;
12312;SDS011;6220;53.580;9.758;2023-12-07T06:13:08;34.00;;;26.03;;
12312;SDS011;6220;53.580;9.758;2023-12-07T06:15:35;34.63;;;25.20;;
12312;SDS011;6220;53.580;9.758;2023-12-07T06:18:01;33.67;;;26.20;;
12312;SDS011;6220;53.580;9.758;2023-12-07T06:20:28;35.23;;;26.80;;
12312;SDS011;6220;53.580;9.758;2023-12-07T06:22:54;32.17;;;25.93;;
12312;SDS011;6220;53.580;9.758;2023-12-07T06:25:20;31.50;;;25.63;;
12312;SDS011;6220;53.580;9.758;2023-12-07T06:27:45;33.23;;;25.13;;
12312;SDS011;6220;53.580;9.758;2023-12-07T06:30:12;33.77;;;25.87;;
12312;SDS011;6220;53.580;9.758;2023-12-07T06:32:37;32.83;;;26.13;;
12312;SDS011;6220;53.580;9.758;2023-12-07T06:35:03;31.43;;;25.77;;
12312;SDS011;6220;53.580;9.758;2023-12-07T06:37:32;32.90;;;26.30;;
12312;SDS011;6220;53.580;9.758;2023-12-07T06:39:59;31.43;;;24.70;;
12312;SDS011;6220;53.580;9.758;2023-12-07T06:42:25;31.73;;;24.93;;
12312;SDS011;6220;53.580;9.758;2023-12-07T06:44:51;32.93;;;24.67;;
12312;SDS011;6220;53.580;9.758;2023-12-07T06:47:16;30.07;;;24.63;;
12312;SDS011;6220;53.580;9.758;2023-12-07T06:49:43;29.73;;;25.33;;
12312;SDS011;6220;53.580;9.758;2023-12-07T06:52:08;29.97;;;24.70;;
12312;SDS011;6220;53.580;9.758;2023-12-07T06:54:34;32.00;;;25.17;;
12312;SDS011;6220;53.580;9.758;2023-12-07T06:56:59;30.10;;;24.83;;
12312;SDS011;6220;53.580;9.758;2023-12-07T06:59:25;31.40;;;26.40;;
12312;SDS011;6220;53.580;9.758;2023-12-07T07:01:51;31.80;;;26.27;;
12312;SDS011;6220;53.580;9.758;2023-12-07T07:04:17;32.07;;;25.27;;
12312;SDS011;6220;53.580;9.758;2023-12-07T07:06:43;28.90;;;24.40;;
12312;SDS011;6220;53.580;9.758;2023-12-07T07:09:10;30.50;;;25.33;;
12312;SDS011;6220;53.580;9.758;2023-12-07T07:11:35;29.67;;;24.97;;
12312;SDS011;6220;53.580;9.758;2023-12-07T07:14:02;32.77;;;26.10;;
12312;SDS011;6220;53.580;9.758;2023-12-07T07:16:27;31.47;;;26.13;;
12312;SDS011;6220;53.580;9.758;2023-12-07T07:18:52;29.60;;;24.77;;
12312;SDS011;6220;53.580;9.758;2023-12-07T07:21:18;29.30;;;24.77;;
12312;SDS011;6220;53.580;9.758;2023-12-07T07:23:44;28.50;;;25.00;;
12312;SDS011;6220;53.580;9.758;2023-12-07T07:26:10;30.77;;;24.80;;
12312;SDS011;6220;53.580;9.758;2023-12-07T07:28:35;30.27;;;24.53;;
12312;SDS011;6220;53.580;9.758;2023-12-07T07:31:01;30.00;;;25.37;;
12312;SDS011;6220;53.580;9.758;2023-12-07T07:33:27;29.30;;;25.70;;
12312;SDS011;6220;53.580;9.758;2023-12-07T07:35:53;30.03;;;25.00;;
12312;SDS011;6220;53.580;9.758;2023-12-07T07:38:18;27.50;;;24.57;;
12312;SDS011;6220;53.580;9.758;2023-12-07T07:40:43;30.17;;;24.70;;
12312;SDS011;6220;53.580;9.758;2023-12-07T07:43:11;29.40;;;24.30;;
12312;SDS011;6220;53.580;9.758;2023-12-07T07:45:36;29.20;;;24.87;;
12312;SDS011;6220;53.580;9.758;2023-12-07T07:48:02;28.87;;;24.97;;
12312;SDS011;6220;53.580;9.758;2023-12-07T07:50:27;27.67;;;23.43;;
12312;SDS011;6220;53.580;9.758;2023-12-07T07:52:54;30.23;;;25.00;;
12312;SDS011;6220;53.580;9.758;2023-12-07T07:55:19;28.37;;;24.43;;
12312;SDS011;6220;53.580;9.758;2023-12-07T07:57:45;31.63;;;25.30;;
12312;SDS011;6220;53.580;9.758;2023-12-07T08:00:11;28.13;;;24.93;;
12312;SDS011;6220;53.580;9.758;2023-12-07T08:02:38;30.20;;;24.87;;
12312;SDS011;6220;53.580;9.758;2023-12-07T08:05:03;32.20;;;26.00;;
12312;SDS011;6220;53.580;9.758;2023-12-07T08:07:29;31.37;;;25.37;;
12312;SDS011;6220;53.580;9.758;2023-12-07T08:09:54;29.43;;;24.70;;
12312;SDS011;6220;53.580;9.758;2023-12-07T08:12:20;28.53;;;25.43;;
12312;SDS011;6220;53.580;9.758;2023-12-07T08:14:47;32.43;;;26.37;;
12312;SDS011;6220;53.580;9.758;2023-12-07T08:17:13;29.93;;;25.47;;
12312;SDS011;6220;53.580;9.758;2023-12-07T08:19:41;30.93;;;26.13;;
12312;SDS011;6220;53.580;9.758;2023-12-07T08:22:06;32.17;;;25.87;;
12312;SDS011;6220;53.580;9.758;2023-12-07T08:24:35;31.43;;;26.63;;
12312;SDS011;6220;53.580;9.758;2023-12-07T08:27:02;34.00;;;26.10;;
12312;SDS011;6220;53.580;9.758;2023-12-07T08:29:28;34.93;;;27.53;;
12312;SDS011;6220;53.580;9.758;2023-12-07T08:31:55;32.00;;;26.50;;
12312;SDS011;6220;53.580;9.758;2023-12-07T08:34:23;30.83;;;26.60;;
12312;SDS011;6220;53.580;9.758;2023-12-07T08:36:49;32.47;;;27.17;;
12312;SDS011;6220;53.580;9.758;2023-12-07T08:39:15;35.73;;;27.43;;
12312;SDS011;6220;53.580;9.758;2023-12-07T08:41:40;32.20;;;27.17;;
12312;SDS011;6220;53.580;9.758;2023-12-07T08:44:05;44.20;;;29.27;;
12312;SDS011;6220;53.580;9.758;2023-12-07T08:46:31;36.70;;;28.73;;
12312;SDS011;6220;53.580;9.758;2023-12-07T08:48:56;47.50;;;29.93;;
12312;SDS011;6220;53.580;9.758;2023-12-07T08:51:22;33.67;;;28.40;;
12312;SDS011;6220;53.580;9.758;2023-12-07T08:53:48;36.07;;;28.17;;
12312;SDS011;6220;53.580;9.758;2023-12-07T08:56:14;40.67;;;28.83;;
12312;SDS011;6220;53.580;9.758;2023-12-07T08:58:41;67.33;;;29.93;;
12312;SDS011;6220;53.580;9.758;2023-12-07T09:01:10;32.80;;;27.17;;
12312;SDS011;6220;53.580;9.758;2023-12-07T09:03:36;94.57;;;29.07;;
12312;SDS011;6220;53.580;9.758;2023-12-07T09:06:02;36.10;;;28.53;;
12312;SDS011;6220;53.580;9.758;2023-12-07T09:08:28;77.17;;;28.90;;
12312;SDS011;6220;53.580;9.758;2023-12-07T09:10:53;33.23;;;28.13;;
12312;SDS011;6220;53.580;9.758;2023-12-07T09:13:18;40.77;;;28.70;;
12312;SDS011;6220;53.580;9.758;2023-12-07T09:15:44;70.13;;;29.60;;
12312;SDS011;6220;53.580;9.758;2023-12-07T09:18:10;34.07;;;27.00;;
12312;SDS011;6220;53.580;9.758;2023-12-07T09:20:37;129.30;;;30.77;;
12312;SDS011;6220;53.580;9.758;2023-12-07T09:23:10;59.20;;;28.67;;
12312;SDS011;6220;53.580;9.758;2023-12-07T09:25:36;72.67;;;30.57;;
12312;SDS011;6220;53.580;9.758;2023-12-07T09:28:04;53.00;;;27.90;;
12312;SDS011;6220;53.580;9.758;2023-12-07T09:30:29;43.07;;;26.93;;
12312;SDS011;6220;53.580;9.758;2023-12-07T09:32:54;116.97;;;29.27;;
12312;SDS011;6220;53.580;9.758;2023-12-07T09:35:20;59.30;;;27.57;;
12312;SDS011;6220;53.580;9.758;2023-12-07T09:37:47;43.93;;;28.33;;
12312;SDS011;6220;53.580;9.758;2023-12-07T09:40:22;70.57;;;27.50;;
12312;SDS011;6220;53.580;9.758;2023-12-07T09:42:50;32.40;;;25.23;;
12312;SDS011;6220;53.580;9.758;2023-12-07T09:45:16;47.77;;;27.03;;
12312;SDS011;6220;53.580;9.758;2023-12-07T09:47:43;50.60;;;26.33;;
12312;SDS011;6220;53.580;9.758;2023-12-07T09:50:12;112.40;;;28.10;;
12312;SDS011;6220;53.580;9.758;2023-12-07T09:52:43;28.83;;;24.57;;
12312;SDS011;6220;53.580;9.758;2023-12-07T09:55:09;28.23;;;23.90;;
12312;SDS011;6220;53.580;9.758;2023-12-07T09:57:36;26.10;;;22.87;;
12312;SDS011;6220;53.580;9.758;2023-12-07T10:00:02;37.97;;;23.47;;
12312;SDS011;6220;53.580;9.758;2023-12-07T10:02:28;69.03;;;24.80;;
12312;SDS011;6220;53.580;9.758;2023-12-07T10:05:03;35.23;;;24.23;;
12312;SDS011;6220;53.580;9.758;2023-12-07T10:07:34;38.00;;;24.63;;
12312;SDS011;6220;53.580;9.758;2023-12-07T10:10:01;34.00;;;23.13;;
12312;SDS011;6220;53.580;9.758;2023-12-07T10:12:28;49.87;;;24.30;;
12312;SDS011;6220;53.580;9.758;2023-12-07T10:14:54;27.80;;;22.50;;
12312;SDS011;6220;53.580;9.758;2023-12-07T10:17:19;26.20;;;22.60;;
12312;SDS011;6220;53.580;9.758;2023-12-07T10:19:45;43.10;;;24.67;;
12312;SDS011;6220;53.580;9.758;2023-12-07T10:22:13;28.70;;;24.00;;
12312;SDS011;6220;53.580;9.758;2023-12-07T10:24:40;28.10;;;23.77;;
12312;SDS011;6220;53.580;9.758;2023-12-07T10:27:06;30.70;;;24.27;;
12312;SDS011;6220;53.580;9.758;2023-12-07T10:29:35;39.07;;;25.80;;
12312;SDS011;6220;53.580;9.758;2023-12-07T10:32:02;28.13;;;24.03;;
12312;SDS011;6220;53.580;9.758;2023-12-07T10:34:28;35.67;;;25.10;;
12312;SDS011;6220;53.580;9.758;2023-12-07T10:36:54;27.17;;;23.33;;
12312;SDS011;6220;53.580;9.758;2023-12-07T10:39:20;38.70;;;24.20;;
12312;SDS011;6220;53.580;9.758;2023-12-07T10:41:49;40.17;;;25.47;;
12312;SDS011;6220;53.580;9.758;2023-12-07T10:44:15;31.17;;;24.70;;
12312;SDS011;6220;53.580;9.758;2023-12-07T10:46:42;37.47;;;27.57;;
12312;SDS011;6220;53.580;9.758;2023-12-07T10:49:08;33.00;;;26.70;;
12312;SDS011;6220;53.580;9.758;2023-12-07T10:51:58;46.17;;;27.10;;
12312;SDS011;6220;53.580;9.758;2023-12-07T10:54:27;34.17;;;26.30;;
12312;SDS011;6220;53.580;9.758;2023-12-07T10:56:56;40.93;;;27.23;;
12312;SDS011;6220;53.580;9.758;2023-12-07T10:59:27;43.10;;;26.40;;
12312;SDS011;6220;53.580;9.758;2023-12-07T11:01:54;30.73;;;25.27;;
12312;SDS011;6220;53.580;9.758;2023-12-07T11:04:20;35.00;;;24.97;;
12312;SDS011;6220;53.580;9.758;2023-12-07T11:06:46;33.27;;;24.97;;
12312;SDS011;6220;53.580;9.758;2023-12-07T11:09:15;33.07;;;24.83;;
12312;SDS011;6220;53.580;9.758;2023-12-07T11:14:17;30.70;;;24.23;;
12312;SDS011;6220;53.580;9.758;2023-12-07T11:16:45;27.90;;;23.43;;
12312;SDS011;6220;53.580;9.758;2023-12-07T11:19:44;29.00;;;23.93;;
12312;SDS011;6220;53.580;9.758;2023-12-07T11:22:07;29.70;;;24.43;;
12312;SDS011;6220;53.580;9.758;2023-12-07T11:24:34;29.90;;;24.80;;
12312;SDS011;6220;53.580;9.758;2023-12-07T11:27:01;30.93;;;24.27;;
12312;SDS011;6220;53.580;9.758;2023-12-07T11:29:30;31.57;;;24.57;;
12312;SDS011;6220;53.580;9.758;2023-12-07T11:31:57;29.17;;;24.27;;
12312;SDS011;6220;53.580;9.758;2023-12-07T11:34:38;28.80;;;24.13;;
12312;SDS011;6220;53.580;9.758;2023-12-07T11:37:05;31.80;;;24.13;;
12312;SDS011;6220;53.580;9.758;2023-12-07T11:39:35;29.53;;;24.37;;
12312;SDS011;6220;53.580;9.758;2023-12-07T11:42:07;31.00;;;24.50;;
12312;SDS011;6220;53.580;9.758;2023-12-07T11:44:39;29.97;;;25.33;;
12312;SDS011;6220;53.580;9.758;2023-12-07T11:47:05;27.03;;;22.97;;
12312;SDS011;6220;53.580;9.758;2023-12-07T11:49:31;28.93;;;23.63;;
12312;SDS011;6220;53.580;9.758;2023-12-07T11:51:57;28.80;;;22.93;;
12312;SDS011;6220;53.580;9.758;2023-12-07T11:54:26;28.63;;;23.50;;
12312;SDS011;6220;53.580;9.758;2023-12-07T11:56:55;27.07;;;23.07;;
12312;SDS011;6220;53.580;9.758;2023-12-07T11:59:21;29.20;;;23.23;;
12312;SDS011;6220;53.580;9.758;2023-12-07T12:01:48;28.40;;;23.30;;
12312;SDS011;6220;53.580;9.758;2023-12-07T12:04:14;29.23;;;23.70;;
12312;SDS011;6220;53.580;9.758;2023-12-07T12:06:40;28.23;;;23.83;;
12312;SDS011;6220;53.580;9.758;2023-12-07T12:09:05;29.90;;;22.97;;
12312;SDS011;6220;53.580;9.758;2023-12-07T12:11:31;31.97;;;24.90;;
12312;SDS011;6220;53.580;9.758;2023-12-07T12:13:56;29.00;;;23.87;;
12312;SDS011;6220;53.580;9.758;2023-12-07T12:16:22;28.73;;;23.93;;
12312;SDS011;6220;53.580;9.758;2023-12-07T12:18:48;29.23;;;23.07;;
12312;SDS011;6220;53.580;9.758;2023-12-07T12:21:13;28.83;;;23.20;;
12312;SDS011;6220;53.580;9.758;2023-12-07T12:23:40;28.37;;;23.33;;
12312;SDS011;6220;53.580;9.758;2023-12-07T12:26:07;29.20;;;23.33;;
12312;SDS011;6220;53.580;9.758;2023-12-07T12:28:35;30.73;;;24.33;;
12312;SDS011;6220;53.580;9.758;2023-12-07T12:31:07;29.93;;;23.47;;
12312;SDS011;6220;53.580;9.758;2023-12-07T12:33:36;28.70;;;23.60;;
12312;SDS011;6220;53.580;9.758;2023-12-07T12:36:03;29.20;;;25.10;;
12312;SDS011;6220;53.580;9.758;2023-12-07T12:38:32;30.57;;;23.57;;
12312;SDS011;6220;53.580;9.758;2023-12-07T12:40:58;27.27;;;23.07;;
12312;SDS011;6220;53.580;9.758;2023-12-07T12:43:23;28.03;;;22.93;;
12312;SDS011;6220;53.580;9.758;2023-12-07T12:45:49;27.73;;;22.63;;
12312;SDS011;6220;53.580;9.758;2023-12-07T12:48:14;27.43;;;22.60;;
12312;SDS011;6220;53.580;9.758;2023-12-07T12:50:40;27.60;;;23.07;;
12312;SDS011;6220;53.580;9.758;2023-12-07T12:53:07;26.77;;;22.73;;
12312;SDS011;6220;53.580;9.758;2023-12-07T12:55:35;29.33;;;23.33;;
12312;SDS011;6220;53.580;9.758;2023-12-07T12:58:00;26.80;;;23.47;;
12312;SDS011;6220;53.580;9.758;2023-12-07T13:00:28;30.80;;;23.97;;
12312;SDS011;6220;53.580;9.758;2023-12-07T13:02:54;29.67;;;24.20;;
12312;SDS011;6220;53.580;9.758;2023-12-07T13:05:20;29.00;;;24.33;;
12312;SDS011;6220;53.580;9.758;2023-12-07T13:07:48;29.67;;;24.80;;
12312;SDS011;6220;53.580;9.758;2023-12-07T13:10:14;28.93;;;23.43;;
12312;SDS011;6220;53.580;9.758;2023-12-07T13:12:40;29.23;;;24.73;;
12312;SDS011;6220;53.580;9.758;2023-12-07T13:15:05;31.50;;;25.37;;
12312;SDS011;6220;53.580;9.758;2023-12-07T13:17:31;30.40;;;24.50;;
12312;SDS011;6220;53.580;9.758;2023-12-07T13:19:57;30.33;;;23.97;;
12312;SDS011;6220;53.580;9.758;2023-12-07T13:22:25;30.60;;;24.20;;
12312;SDS011;6220;53.580;9.758;2023-12-07T13:24:51;32.90;;;26.20;;
12312;SDS011;6220;53.580;9.758;2023-12-07T13:27:16;31.17;;;25.27;;
12312;SDS011;6220;53.580;9.758;2023-12-07T13:29:44;31.53;;;25.23;;
12312;SDS011;6220;53.580;9.758;2023-12-07T13:32:09;33.70;;;25.90;;
12312;SDS011;6220;53.580;9.758;2023-12-07T13:34:35;33.10;;;25.70;;
12312;SDS011;6220;53.580;9.758;2023-12-07T13:37:02;28.97;;;24.87;;
12312;SDS011;6220;53.580;9.758;2023-12-07T13:39:28;30.47;;;25.83;;
12312;SDS011;6220;53.580;9.758;2023-12-07T13:41:54;31.57;;;25.07;;
12312;SDS011;6220;53.580;9.758;2023-12-07T13:44:20;33.77;;;25.77;;
12312;SDS011;6220;53.580;9.758;2023-12-07T13:46:46;33.00;;;26.23;;
12312;SDS011;6220;53.580;9.758;2023-12-07T13:49:11;33.17;;;27.10;;
12312;SDS011;6220;53.580;9.758;2023-12-07T13:51:40;36.43;;;27.50;;
12312;SDS011;6220;53.580;9.758;2023-12-07T13:54:06;38.23;;;28.13;;
12312;SDS011;6220;53.580;9.758;2023-12-07T13:56:33;37.33;;;28.90;;
12312;SDS011;6220;53.580;9.758;2023-12-07T13:59:00;42.77;;;30.23;;
12312;SDS011;6220;53.580;9.758;2023-12-07T14:01:26;41.17;;;29.73;;
12312;SDS011;6220;53.580;9.758;2023-12-07T14:03:53;38.10;;;27.50;;
12312;SDS011;6220;53.580;9.758;2023-12-07T14:06:23;39.53;;;27.70;;
12312;SDS011;6220;53.580;9.758;2023-12-07T14:08:50;38.07;;;29.30;;
12312;SDS011;6220;53.580;9.758;2023-12-07T14:11:16;34.93;;;26.80;;
12312;SDS011;6220;53.580;9.758;2023-12-07T14:13:43;34.23;;;26.80;;
12312;SDS011;6220;53.580;9.758;2023-12-07T14:16:08;35.40;;;27.70;;
12312;SDS011;6220;53.580;9.758;2023-12-07T14:18:34;33.57;;;26.63;;
12312;SDS011;6220;53.580;9.758;2023-12-07T14:21:01;36.30;;;28.17;;
12312;SDS011;6220;53.580;9.758;2023-12-07T14:23:27;42.17;;;31.37;;
12312;SDS011;6220;53.580;9.758;2023-12-07T14:25:52;38.97;;;29.60;;
12312;SDS011;6220;53.580;9.758;2023-12-07T14:28:23;38.63;;;28.20;;
12312;SDS011;6220;53.580;9.758;2023-12-07T14:30:48;34.00;;;27.77;;
12312;SDS011;6220;53.580;9.758;2023-12-07T14:33:15;35.27;;;27.10;;
12312;SDS011;6220;53.580;9.758;2023-12-07T14:35:42;35.57;;;28.03;;